Time;durP1;ratioP1;P1;durP2;ratioP2;P2;SDS_P1;SDS_P2;PMS_P1;PMS_P2;Temp;Humidity;BMP_temperature;BMP_pressure;BME280_temperature;BME280_humidity;BME280_pressure;Samples;Min_cycle;Max_cycle;Signal;HPM_P1;HPM_P2
2022/05/28 00:00:19;;;;;;;2.95;1.30;;;;;;;9.74;67.78;100060.72;1687218;84;27636;-82
2022/05/28 00:02:48;;;;;;;5.00;1.60;;;;;;;9.73;67.82;100059.59;1686781;84;25398;-82
2022/05/28 00:05:15;;;;;;;4.17;1.50;;;;;;;9.69;67.90;100059.62;1686855;84;26651;-83
2022/05/28 00:07:41;;;;;;;2.58;1.10;;;;;;;9.67;68.09;100065.69;1686867;84;26495;-83
2022/05/28 00:10:12;;;;;;;3.67;0.90;;;;;;;9.66;68.08;100060.03;1687402;84;26596;-82
2022/05/28 00:12:39;;;;;;;4.58;1.25;;;;;;;9.66;68.17;100060.87;1687429;84;27641;-82
2022/05/28 00:15:07;;;;;;;4.20;1.20;;;;;;;9.63;68.28;100058.57;1687513;84;26329;-83
2022/05/28 00:17:34;;;;;;;2.35;1.37;;;;;;;9.62;68.59;100062.28;1687725;84;25842;-82
2022/05/28 00:20:00;;;;;;;3.12;1.42;;;;;;;9.56;68.46;100057.69;1687431;84;25763;-82
2022/05/28 00:22:26;;;;;;;6.97;1.35;;;;;;;9.52;68.63;100054.25;1687817;84;25876;-83
2022/05/28 00:24:52;;;;;;;3.37;1.27;;;;;;;9.51;68.84;100053.45;1683313;84;27468;-82
2022/05/28 00:27:18;;;;;;;2.92;1.20;;;;;;;9.51;69.05;100060.13;1675166;85;25924;-83
2022/05/28 00:29:45;;;;;;;6.00;1.30;;;;;;;9.46;68.98;100055.86;1675121;85;25877;-82
2022/05/28 00:32:11;;;;;;;4.83;1.30;;;;;;;9.43;69.14;100048.75;1675043;85;25927;-83
2022/05/28 00:34:40;;;;;;;8.08;1.60;;;;;;;9.41;69.25;100036.08;1675152;85;25597;-83
2022/05/28 00:37:05;;;;;;;3.70;1.02;;;;;;;9.40;69.53;100039.26;1674910;84;27547;-83
2022/05/28 00:39:31;;;;;;;3.83;1.30;;;;;;;9.41;69.41;100038.75;1675237;84;25799;-83
2022/05/28 00:41:58;;;;;;;9.73;1.70;;;;;;;9.38;69.58;100047.14;1675400;85;25735;-83
2022/05/28 00:44:25;;;;;;;2.90;1.30;;;;;;;9.36;69.69;100042.00;1675270;85;26004;-84
2022/05/28 00:46:54;;;;;;;4.35;1.22;;;;;;;9.38;69.65;100042.63;1674899;85;25959;-83
2022/05/28 00:49:29;;;;;;;4.12;1.30;;;;;;;9.38;69.72;100042.63;1675085;85;27717;-83
2022/05/28 00:51:59;;;;;;;2.95;1.15;;;;;;;9.35;69.70;100041.67;1674974;85;25919;-83
2022/05/28 00:54:29;;;;;;;;;;;;;;;9.30;69.94;100035.56;1677969;84;26197;-83
2022/05/28 00:56:57;;;;;;;3.87;1.90;;;;;;;9.26;70.08;100034.30;1675071;85;26460;-83
2022/05/28 00:59:23;;;;;;;9.78;1.75;;;;;;;9.23;70.15;100036.03;1675319;85;25869;-83
2022/05/28 01:01:54;;;;;;;6.12;1.50;;;;;;;9.24;70.25;100037.67;1675098;84;28297;-84
2022/05/28 01:04:35;;;;;;;3.25;1.22;;;;;;;9.19;70.36;100036.60;1650141;85;26078;-83
2022/05/28 01:07:25;;;;;;;6.05;1.67;;;;;;;9.15;70.33;100029.45;1675252;85;25916;-83
2022/05/28 01:10:09;;;;;;;3.83;1.13;;;;;;;9.13;70.41;100030.16;1675954;85;26357;-83
2022/05/28 01:12:43;;;;;;;2.72;1.30;;;;;;;9.08;70.84;100024.58;1675071;85;25894;-83
2022/05/28 01:15:23;;;;;;;2.83;1.20;;;;;;;9.04;70.90;100028.66;1674814;85;28314;-83
2022/05/28 01:18:11;;;;;;;4.53;1.15;;;;;;;9.00;71.04;100026.02;1674971;85;25934;-83
2022/05/28 01:20:42;;;;;;;6.42;1.42;;;;;;;8.97;71.51;100023.75;1675296;85;25349;-83
2022/05/28 01:23:31;;;;;;;;;;;;;;;8.93;71.39;100018.47;1676824;85;25800;-84
2022/05/28 01:26:28;;;;;;;5.70;2.52;;;;;;;8.90;71.70;100014.83;1674886;85;25989;-83
2022/05/28 01:29:03;;;;;;;3.67;1.32;;;;;;;8.84;72.02;100012.92;1674415;84;27535;-83
2022/05/28 01:31:32;;;;;;;4.62;1.60;;;;;;;8.84;72.28;100024.11;1675144;85;26448;-84
2022/05/28 01:34:02;;;;;;;3.52;1.20;;;;;;;8.84;72.14;100018.27;1674863;85;26444;-83
2022/05/28 01:36:30;;;;;;;;;;;;;;;8.83;72.44;100019.27;1677416;85;25797;-83
2022/05/28 01:38:57;;;;;;;6.85;1.50;;;;;;;8.80;72.49;100015.66;1675705;85;25912;-83
2022/05/28 01:41:24;;;;;;;6.15;1.42;;;;;;;8.77;72.67;100024.56;1674927;85;27298;-83
2022/05/28 01:43:52;;;;;;;6.58;1.77;;;;;;;8.79;72.88;100023.34;1675259;85;25830;-82
2022/05/28 01:46:21;;;;;;;4.78;1.52;;;;;;;8.79;73.06;100016.66;1674624;85;25807;-83
2022/05/28 01:48:52;;;;;;;2.70;1.05;;;;;;;8.79;73.39;100015.33;1650202;85;25976;-83
2022/05/28 01:51:21;;;;;;;4.03;1.30;;;;;;;8.80;73.12;100010.32;1675440;85;25971;-83
2022/05/28 01:54:07;;;;;;;3.10;1.45;;;;;;;8.81;73.20;100011.16;1675197;85;27629;-83
2022/05/28 01:56:35;;;;;;;6.75;1.85;;;;;;;8.81;73.27;99999.94;1674893;85;25968;-83
2022/05/28 01:59:01;;;;;;;5.87;1.07;;;;;;;8.84;73.54;100002.25;1675312;85;25842;-84
2022/05/28 02:01:28;;;;;;;4.45;1.60;;;;;;;8.86;73.76;99991.36;1674965;85;26449;-83
2022/05/28 02:04:00;;;;;;;3.70;1.40;;;;;;;8.85;73.77;99991.06;1675079;85;25318;-83
2022/05/28 02:06:26;;;;;;;6.72;1.50;;;;;;;8.82;73.59;99985.59;1675114;85;28251;-83
2022/05/28 02:08:55;;;;;;;9.33;1.42;;;;;;;8.84;73.61;99988.06;1675100;85;25942;-83
2022/05/28 02:11:26;;;;;;;7.17;1.10;;;;;;;8.84;73.73;99988.89;1674957;85;25875;-82
2022/05/28 02:14:11;;;;;;;;;;;;;;;8.83;73.77;99989.09;1677812;85;25883;-83
2022/05/28 02:16:46;;;;;;;7.00;1.85;;;;;;;8.83;73.82;99990.42;1674717;85;26125;-84
2022/05/28 02:19:21;;;;;;;6.50;1.40;;;;;;;8.83;73.84;99981.88;1674980;85;27449;-83
2022/05/28 02:21:56;;;;;;;5.40;1.20;;;;;;;8.84;74.15;99983.55;1674149;85;25815;-84
2022/05/28 02:24:46;;;;;;;7.92;1.50;;;;;;;8.86;74.02;99975.34;1673289;85;25965;-84
2022/05/28 02:27:15;;;;;;;5.95;1.37;;;;;;;8.86;74.17;99978.01;1659479;85;25939;-83
2022/05/28 02:29:42;;;;;;;4.15;1.15;;;;;;;8.86;74.31;99976.17;1661172;85;25998;-83
2022/05/28 02:32:16;;;;;;;7.58;1.40;;;;;;;8.89;74.53;99982.98;1660844;85;27465;-83
2022/05/28 02:34:45;;;;;;;2.75;1.32;;;;;;;8.94;74.48;99981.38;1643932;86;25845;-83
2022/05/28 02:37:20;;;;;;;8.73;1.27;;;;;;;8.98;74.70;99983.18;1660903;85;25595;-83
2022/05/28 02:39:47;;;;;;;4.28;2.05;;;;;;;9.00;74.63;99973.93;1660950;85;25926;-83
2022/05/28 02:42:13;;;;;;;4.22;1.30;;;;;;;9.06;74.55;99974.52;1660865;85;25854;-83
2022/05/28 02:44:40;;;;;;;3.05;1.27;;;;;;;9.11;74.66;99974.75;1661395;85;27461;-84
2022/05/28 02:47:06;;;;;;;7.22;1.40;;;;;;;9.16;74.62;99969.67;1660869;85;25909;-83
2022/05/28 02:49:32;;;;;;;6.03;1.40;;;;;;;9.21;74.64;99973.11;1661476;85;25828;-83
2022/05/28 02:52:05;;;;;;;6.65;1.50;;;;;;;9.26;74.68;99972.83;1661026;85;25867;-84
2022/05/28 02:54:32;;;;;;;2.92;1.10;;;;;;;9.30;74.56;99967.95;1661235;85;26018;-83
2022/05/28 02:56:58;;;;;;;6.10;1.32;;;;;;;9.32;74.76;99970.72;1660992;85;28233;-83
2022/05/28 02:59:25;;;;;;;6.75;1.10;;;;;;;9.34;74.61;99967.87;1660551;85;25368;-83
2022/05/28 03:01:52;;;;;;;4.45;1.42;;;;;;;9.37;74.58;99970.67;1660757;85;25983;-83
2022/05/28 03:04:20;;;;;;;5.28;1.07;;;;;;;9.39;74.55;99968.09;1661314;85;25842;-83
2022/05/28 03:06:46;;;;;;;4.17;1.20;;;;;;;9.42;74.47;99968.22;1660888;85;25829;-83
2022/05/28 03:09:16;;;;;;;6.65;1.20;;;;;;;9.45;74.64;99970.02;1661546;85;27439;-83
2022/05/28 03:11:42;;;;;;;5.65;1.50;;;;;;;9.47;74.73;99973.31;1661044;85;25923;-84
2022/05/28 03:14:09;;;;;;;7.50;1.62;;;;;;;9.50;74.62;99969.41;1673888;84;25907;-83
2022/05/28 03:16:35;;;;;;;4.08;1.50;;;;;;;9.51;74.52;99964.38;1690573;83;25958;-83
2022/05/28 03:19:01;;;;;;;3.12;1.32;;;;;;;9.55;74.56;99964.31;1690784;84;25319;-83
2022/05/28 03:21:27;;;;;;;3.30;1.40;;;;;;;9.56;74.50;99971.33;1690383;84;28418;-83
2022/05/28 03:23:54;;;;;;;3.65;1.57;;;;;;;9.58;74.68;99975.42;1688841;84;25901;-83
2022/05/28 03:26:24;;;;;;;2.17;1.10;;;;;;;9.58;74.65;99975.96;1687731;84;25991;-83
2022/05/28 03:28:51;;;;;;;7.08;1.27;;;;;;;9.60;74.91;99975.25;1684334;84;25781;-83
2022/05/28 03:31:19;;;;;;;4.85;1.25;;;;;;;9.61;74.87;99971.54;1687742;84;25925;-82
2022/05/28 03:33:45;;;;;;;5.40;1.30;;;;;;;9.63;75.02;99974.84;1687165;84;26966;-83
2022/05/28 03:36:14;;;;;;;4.00;1.10;;;;;;;9.65;75.28;99977.64;1631861;84;26591;-84
2022/05/28 03:38:40;;;;;;;2.95;1.22;;;;;;;9.64;75.20;99973.34;1679013;83;26353;-83
2022/05/28 03:41:07;;;;;;;5.40;1.60;;;;;;;9.64;75.42;99969.83;1686728;83;25827;-83
2022/05/28 03:43:33;;;;;;;7.42;1.42;;;;;;;9.64;75.10;99972.00;1682374;83;25653;-83
2022/05/28 03:46:00;;;;;;;5.30;1.62;;;;;;;9.67;74.85;99974.77;1685523;83;28260;-83
2022/05/28 03:48:28;;;;;;;4.00;1.40;;;;;;;9.66;74.88;99965.94;1682869;83;26001;-84
2022/05/28 03:50:57;;;;;;;5.13;1.63;;;;;;;9.65;74.73;99978.14;1683428;83;26555;-83
2022/05/28 03:53:23;;;;;;;3.87;1.60;;;;;;;9.64;74.67;99976.01;1686405;83;26652;-83
2022/05/28 03:55:50;;;;;;;3.80;1.25;;;;;;;9.67;74.59;99969.41;1683477;83;25812;-83
2022/05/28 03:58:16;;;;;;;5.55;1.77;;;;;;;9.68;74.53;99971.08;1690714;83;27473;-83
2022/05/28 04:00:43;;;;;;;4.22;1.37;;;;;;;9.71;74.51;99973.38;1682892;83;26546;-82
2022/05/28 04:03:09;;;;;;;4.67;1.37;;;;;;;9.71;74.41;99964.82;1685065;83;26095;-83
2022/05/28 04:05:38;;;;;;;5.35;1.77;;;;;;;9.77;74.44;99967.23;1690556;83;26564;-82
2022/05/28 04:08:06;;;;;;;3.90;1.50;;;;;;;9.82;74.41;99972.30;1687097;83;25727;-83
2022/05/28 04:10:32;;;;;;;4.70;1.45;;;;;;;9.86;74.48;99971.38;1686744;83;27512;-82
2022/05/28 04:12:58;;;;;;;5.58;1.40;;;;;;;9.87;74.46;99969.87;1679292;83;26560;-82
2022/05/28 04:15:27;;;;;;;4.58;1.20;;;;;;;9.88;74.20;99972.84;1686484;83;25784;-82
2022/05/28 04:17:52;;;;;;;4.22;1.15;;;;;;;9.91;74.29;99979.15;1676714;83;25843;-83
2022/05/28 04:20:19;;;;;;;3.75;1.10;;;;;;;9.94;74.21;99976.06;1678036;83;26416;-82
2022/05/28 04:22:45;;;;;;;5.80;1.30;;;;;;;9.95;74.00;99977.73;1681593;83;27658;-83
2022/05/28 04:25:11;;;;;;;3.05;1.05;;;;;;;9.97;74.09;99972.17;1686936;83;25944;-83
2022/05/28 04:27:42;;;;;;;2.87;0.82;;;;;;;9.99;74.02;99972.29;1685574;83;26433;-82
2022/05/28 04:30:10;;;;;;;9.63;1.40;;;;;;;10.00;73.99;99969.95;1675579;83;26564;-82
2022/05/28 04:32:36;;;;;;;6.45;1.60;;;;;;;10.01;73.77;99973.42;1699400;83;25951;-82
2022/05/28 04:35:02;;;;;;;5.40;1.05;;;;;;;10.04;73.88;99972.53;1677448;83;28150;-82
2022/05/28 04:37:29;;;;;;;3.47;1.30;;;;;;;10.06;73.59;99970.48;1688321;83;25955;-82
2022/05/28 04:39:55;;;;;;;6.97;1.20;;;;;;;10.09;73.76;99967.39;1684781;83;25931;-83
2022/05/28 04:42:21;;;;;;;5.70;1.10;;;;;;;10.10;73.44;99972.23;1694046;83;25862;-82
2022/05/28 04:44:47;;;;;;;5.47;1.60;;;;;;;10.16;73.64;99973.34;1688152;83;26085;-82
2022/05/28 04:47:14;;;;;;;5.95;1.35;;;;;;;10.20;73.71;99963.35;1704237;83;27535;-82
2022/05/28 04:49:40;;;;;;;2.27;1.15;;;;;;;10.23;73.60;99968.32;1679258;84;26579;-82
2022/05/28 04:52:07;;;;;;;6.55;1.57;;;;;;;10.29;73.53;99966.68;1676488;84;25905;-82
2022/05/28 04:54:33;;;;;;;5.30;1.65;;;;;;;10.33;73.26;99969.30;1690676;83;25984;-82
2022/05/28 04:56:59;;;;;;;1.80;0.90;;;;;;;10.40;72.93;99970.95;1684397;84;25897;-82
2022/05/28 04:59:25;;;;;;;4.92;2.08;;;;;;;10.44;73.15;99976.22;1679119;83;27455;-82
2022/05/28 05:01:51;;;;;;;4.60;1.65;;;;;;;10.46;72.87;99975.50;1687658;83;25980;-83
2022/05/28 05:04:18;;;;;;;6.35;1.75;;;;;;;10.50;72.85;99969.25;1681589;83;26062;-82
2022/05/28 05:06:44;;;;;;;10.30;1.80;;;;;;;10.53;72.70;99974.19;1683283;83;25853;-82
2022/05/28 05:09:10;;;;;;;5.72;1.32;;;;;;;10.55;72.68;99978.32;1695725;83;25873;-82
2022/05/28 05:11:36;;;;;;;3.87;1.35;;;;;;;10.59;72.82;99987.59;1669709;84;27639;-82
2022/05/28 05:14:02;;;;;;;3.87;1.20;;;;;;;10.61;72.47;99990.90;1663569;84;25328;-82
2022/05/28 05:16:29;;;;;;;6.58;2.17;;;;;;;10.59;72.00;99986.77;1657965;85;25921;-83
2022/05/28 05:18:55;;;;;;;6.78;1.90;;;;;;;10.59;72.54;99988.11;1650681;86;26655;-84
2022/05/28 05:21:21;;;;;;;3.42;1.52;;;;;;;10.62;72.58;99981.02;1650674;86;25830;-82
2022/05/28 05:23:47;;;;;;;4.75;1.40;;;;;;;10.65;72.58;99989.47;1624264;86;27440;-82
2022/05/28 05:26:18;;;;;;;6.28;1.40;;;;;;;10.66;72.21;99983.09;1650426;86;25918;-82
2022/05/28 05:28:44;;;;;;;3.87;1.52;;;;;;;10.74;72.43;99981.56;1650850;86;25798;-83
2022/05/28 05:31:12;;;;;;;5.45;1.60;;;;;;;10.88;72.91;99983.23;1670617;85;26246;-82
2022/05/28 05:33:38;;;;;;;6.17;1.55;;;;;;;10.99;72.35;99986.36;1665249;85;25608;-82
2022/05/28 05:36:05;;;;;;;6.67;1.12;;;;;;;11.00;71.75;99990.16;1666479;85;27614;-82
2022/05/28 05:38:34;;;;;;;4.40;1.55;;;;;;;11.02;71.60;99988.10;1638065;86;26536;-83
2022/05/28 05:41:00;;;;;;;8.28;1.30;;;;;;;11.03;71.17;99983.07;1666489;84;25874;-82
2022/05/28 05:43:27;;;;;;;5.25;1.55;;;;;;;11.03;71.31;99988.43;1646718;84;25852;-82
2022/05/28 05:45:57;;;;;;;2.47;1.25;;;;;;;11.04;71.12;99984.70;1649904;85;25889;-82
2022/05/28 05:48:25;;;;;;;7.78;1.72;;;;;;;11.06;71.23;99986.66;1659554;85;27490;-83
2022/05/28 05:50:51;;;;;;;4.15;1.37;;;;;;;11.09;70.77;99998.84;1663956;86;25857;-81
2022/05/28 05:53:17;;;;;;;4.85;1.37;;;;;;;11.08;69.79;99986.45;1660293;86;25843;-82
2022/05/28 05:55:44;;;;;;;5.15;1.15;;;;;;;11.14;70.45;99987.80;1660395;86;26406;-82
2022/05/28 05:58:11;;;;;;;4.65;1.40;;;;;;;11.20;69.23;99984.32;1658923;84;26493;-82
2022/05/28 06:00:39;;;;;;;3.17;1.40;;;;;;;11.23;68.95;99983.06;1665961;83;28834;-82
2022/05/28 06:03:06;;;;;;;4.25;1.67;;;;;;;11.26;68.85;99982.66;1658362;84;26049;-82
2022/05/28 06:05:33;;;;;;;6.03;1.50;;;;;;;11.37;68.30;99979.37;1666566;85;25899;-82
2022/05/28 06:07:59;;;;;;;6.30;1.57;;;;;;;11.47;67.77;99972.55;1666572;83;25913;-82
2022/05/28 06:10:25;;;;;;;5.08;2.05;;;;;;;11.46;66.64;99978.13;1666162;86;25898;-82
2022/05/28 06:12:51;;;;;;;7.15;2.05;;;;;;;11.45;66.87;99971.10;1673075;85;27432;-82
2022/05/28 06:15:18;;;;;;;6.62;1.50;;;;;;;11.51;66.36;99971.61;1688431;84;25879;-82
2022/05/28 06:17:44;;;;;;;5.25;1.72;;;;;;;11.63;66.72;99974.79;1700535;84;25777;-83
2022/05/28 06:20:12;;;;;;;4.08;1.25;;;;;;;11.73;66.80;99978.94;1700726;84;25841;-82
2022/05/28 06:22:39;;;;;;;4.95;1.40;;;;;;;11.76;65.13;99967.27;1700741;84;26359;-81
2022/05/28 06:25:06;;;;;;;5.42;1.30;;;;;;;11.83;65.53;99968.59;1702583;83;27528;-81
2022/05/28 06:27:34;;;;;;;6.25;2.27;;;;;;;11.78;65.48;99963.05;1693361;83;25790;-81
2022/05/28 06:30:01;;;;;;;7.65;1.60;;;;;;;11.68;65.29;99971.52;1686212;83;26304;-80
2022/05/28 06:32:27;;;;;;;5.30;1.32;;;;;;;11.77;66.06;99978.83;1666272;85;26384;-81
2022/05/28 06:34:55;;;;;;;3.42;1.07;;;;;;;11.98;65.89;99975.38;1638277;85;25914;-80
2022/05/28 06:37:21;;;;;;;5.55;1.25;;;;;;;12.11;65.02;99959.73;1670775;84;27626;-80
2022/05/28 06:39:47;;;;;;;3.45;1.20;;;;;;;12.14;64.65;99962.84;1682222;84;25834;-80
2022/05/28 06:42:14;;;;;;;4.83;1.70;;;;;;;12.12;64.34;99962.75;1665770;86;25811;-80
2022/05/28 06:44:40;;;;;;;6.95;2.42;;;;;;;12.03;63.85;99962.16;1665873;85;25861;-80
2022/05/28 06:47:06;;;;;;;4.35;1.30;;;;;;;11.98;63.77;99962.47;1690383;84;25807;-81
2022/05/28 06:49:33;;;;;;;4.85;1.10;;;;;;;11.91;63.22;99963.83;1690088;83;27613;-81
2022/05/28 06:51:59;;;;;;;4.00;1.22;;;;;;;11.85;63.13;99964.67;1689982;84;26296;-82
2022/05/28 06:54:25;;;;;;;4.70;1.10;;;;;;;11.77;63.43;99961.39;1689479;84;25920;-81
2022/05/28 06:56:51;;;;;;;3.50;1.10;;;;;;;11.67;63.26;99959.66;1688084;84;26682;-81
2022/05/28 06:59:18;;;;;;;6.20;1.17;;;;;;;11.62;63.87;99962.94;1689726;84;26014;-81
2022/05/28 07:01:44;;;;;;;7.40;2.70;;;;;;;11.63;64.04;99968.63;1671441;85;27617;-81
2022/05/28 07:04:10;;;;;;;18.70;11.85;;;;;;;11.64;64.29;99970.25;1670884;85;25889;-81
2022/05/28 07:06:36;;;;;;;15.13;8.50;;;;;;;11.74;63.79;99959.14;1672310;83;25833;-82
2022/05/28 07:09:07;;;;;;;12.58;4.67;;;;;;;11.80;64.60;99965.00;1673721;83;25780;-81
2022/05/28 07:11:33;;;;;;;9.28;3.17;;;;;;;11.87;64.05;99965.83;1696705;84;26018;-81
2022/05/28 07:13:59;;;;;;;6.20;2.50;;;;;;;11.94;63.56;99962.07;1703163;84;27445;-81
2022/05/28 07:16:26;;;;;;;9.35;1.92;;;;;;;11.93;62.13;99969.80;1702970;84;25848;-81
2022/05/28 07:18:52;;;;;;;6.70;2.98;;;;;;;11.89;63.24;99977.17;1702930;84;25853;-81
2022/05/28 07:21:18;;;;;;;10.38;3.90;;;;;;;11.97;62.84;99974.25;1703174;84;25881;-80
2022/05/28 07:23:44;;;;;;;7.15;2.80;;;;;;;12.12;61.34;99971.63;1703134;84;25771;-80
2022/05/28 07:26:15;;;;;;;5.12;2.83;;;;;;;12.17;59.91;99966.43;1703010;84;28754;-80
2022/05/28 07:28:43;;;;;;;10.03;3.25;;;;;;;12.34;61.27;99955.52;1703336;84;25967;-80
2022/05/28 07:31:14;;;;;;;9.10;3.45;;;;;;;12.64;60.60;99957.11;1703298;84;25318;-80
2022/05/28 07:33:44;;;;;;;6.40;3.25;;;;;;;12.80;60.97;99954.44;1703434;83;26558;-81
2022/05/28 07:36:15;;;;;;;6.05;2.80;;;;;;;12.84;59.62;99955.66;1703420;84;26039;-82
2022/05/28 07:38:46;;;;;;;;;;;;;;;12.78;59.75;99957.36;1704376;83;27035;-80
2022/05/28 07:41:17;;;;;;;8.40;2.20;;;;;;;12.75;58.69;99960.98;1682044;84;26536;-82
2022/05/28 07:43:45;;;;;;;10.15;1.92;;;;;;;12.67;58.06;99963.92;1694802;84;25783;-82
2022/05/28 07:46:19;;;;;;;6.67;2.20;;;;;;;12.62;58.88;99964.56;1702907;84;25882;-80
2022/05/28 07:48:45;;;;;;;5.83;1.65;;;;;;;12.65;59.57;99957.44;1702435;82;25867;-80
2022/05/28 07:51:12;;;;;;;5.47;1.37;;;;;;;12.56;58.43;99966.77;1703217;84;28186;-80
2022/05/28 07:53:39;;;;;;;3.60;1.10;;;;;;;12.62;60.15;99962.39;1702510;84;25801;-80
2022/05/28 07:56:06;;;;;;;6.33;1.40;;;;;;;12.85;60.01;99956.77;1702804;84;25941;-81
2022/05/28 07:58:33;;;;;;;4.65;1.42;;;;;;;12.87;60.03;99961.41;1702489;84;25849;-80
2022/05/28 08:01:00;;;;;;;7.55;1.85;;;;;;;12.84;59.65;99969.09;1689372;84;26433;-79
2022/05/28 08:03:27;;;;;;;4.87;1.40;;;;;;;12.73;59.43;99961.72;1689560;84;27549;-82
2022/05/28 08:05:55;;;;;;;2.42;1.02;;;;;;;12.58;60.07;99971.41;1689657;84;25636;-81
2022/05/28 08:08:24;;;;;;;3.08;1.30;;;;;;;12.59;60.24;99969.56;1689527;84;25803;-80
2022/05/28 08:10:51;;;;;;;2.98;1.00;;;;;;;12.63;60.54;99966.74;1666323;84;25802;-80
2022/05/28 08:13:21;;;;;;;3.35;0.90;;;;;;;12.63;59.28;99954.14;1689201;84;25782;-79
2022/05/28 08:15:50;;;;;;;4.17;1.20;;;;;;;12.55;59.19;99966.48;1689145;84;27525;-80
2022/05/28 08:18:20;;;;;;;5.65;1.45;;;;;;;12.52;59.23;99962.87;1689217;84;26484;-79
2022/05/28 08:23:31;;;;;;;7.80;1.10;;;;;;;12.62;56.93;99968.59;1689191;84;25789;-79
2022/05/28 08:25:57;;;;;;;4.60;1.15;;;;;;;12.76;55.84;99964.81;1689325;84;25984;-81
2022/05/28 08:28:23;;;;;;;6.90;1.40;;;;;;;12.91;57.18;99960.48;1689370;84;27466;-80
2022/05/28 08:30:49;;;;;;;6.70;1.50;;;;;;;13.11;55.93;99953.11;1689719;84;26369;-81
2022/05/28 08:33:18;;;;;;;3.35;1.27;;;;;;;13.25;55.07;99960.05;1689382;84;26222;-80
2022/05/28 08:35:48;;;;;;;4.20;1.20;;;;;;;13.35;56.76;99946.09;1689723;84;25829;-81
2022/05/28 08:38:19;;;;;;;3.27;1.07;;;;;;;13.54;56.65;99943.22;1689693;84;25806;-80
2022/05/28 08:40:59;;;;;;;6.87;1.10;;;;;;;13.61;56.20;99943.98;1689397;84;27453;-79
2022/05/28 08:43:30;;;;;;;2.75;0.90;;;;;;;13.76;57.09;99943.62;1689129;84;25922;-79
2022/05/28 08:45:57;;;;;;;4.37;1.37;;;;;;;13.92;55.92;99955.97;1688537;84;26227;-80
2022/05/28 08:48:34;;;;;;;7.42;1.20;;;;;;;13.88;54.49;99942.66;1689145;84;25833;-80
2022/05/28 08:51:21;;;;;;;10.82;1.22;;;;;;;13.83;54.16;99940.34;1689691;84;26542;-82
2022/05/28 08:53:53;;;;;;;4.28;1.15;;;;;;;13.69;54.82;99942.34;1691875;83;27725;-80
2022/05/28 08:56:24;;;;;;;2.10;1.02;;;;;;;13.54;54.13;99947.77;1679060;83;27668;-80
2022/05/28 08:59:04;;;;;;;3.92;1.30;;;;;;;13.45;54.48;99943.73;1685231;85;25863;-80
2022/05/28 09:01:33;;;;;;;4.90;1.40;;;;;;;13.39;54.85;99932.49;1667917;85;25855;-80
2022/05/28 09:04:04;;;;;;;4.53;1.02;;;;;;;13.39;54.85;99932.49;1667700;85;26484;-79
2022/05/28 09:06:46;;;;;;;4.60;1.30;;;;;;;13.54;53.86;99934.31;1667439;85;27472;-80
2022/05/28 09:09:16;;;;;;;5.70;0.88;;;;;;;13.66;52.97;99934.73;1667237;85;26139;-80
2022/05/28 09:11:53;;;;;;;4.40;0.82;;;;;;;13.77;53.33;99933.17;1667375;85;25616;-81
2022/05/28 09:14:33;;;;;;;3.58;0.90;;;;;;;13.79;53.52;99935.12;1667587;84;25801;-80
2022/05/28 09:17:25;;;;;;;4.78;1.20;;;;;;;13.77;53.45;99936.66;1696812;83;26181;-80
2022/05/28 09:19:55;;;;;;;3.12;1.00;;;;;;;13.72;51.72;99938.39;1686186;83;27513;-80
2022/05/28 09:22:24;;;;;;;7.85;1.00;;;;;;;13.56;52.75;99943.81;1686772;84;33339;-81
2022/05/28 09:24:50;;;;;;;3.72;0.88;;;;;;;13.57;53.70;99943.30;1688760;83;25785;-81
2022/05/28 09:27:29;;;;;;;3.22;1.07;;;;;;;13.77;55.16;99937.21;1685802;83;25932;-81
2022/05/28 09:30:18;;;;;;;5.22;1.20;;;;;;;14.05;55.28;99933.45;1683885;84;26042;-81
2022/05/28 09:33:06;;;;;;;3.65;0.95;;;;;;;14.29;54.73;99926.35;1662300;86;27474;-79
2022/05/28 09:36:06;;;;;;;2.60;0.98;;;;;;;14.36;54.19;99917.16;1684831;83;25860;-79
2022/05/28 09:39:07;;;;;;;4.00;1.40;;;;;;;14.49;53.21;99919.67;1675758;83;25773;-79
2022/05/28 09:41:41;;;;;;;4.33;1.00;;;;;;;14.50;53.18;99915.08;1681228;83;25820;-80
2022/05/28 09:44:36;;;;;;;4.35;0.70;;;;;;;14.28;54.62;99918.79;1677341;83;25808;-80
2022/05/28 09:47:11;;;;;;;5.37;0.90;;;;;;;14.10;56.24;99932.78;1690525;83;27453;-79
2022/05/28 09:49:54;;;;;;;4.30;0.90;;;;;;;13.91;55.18;99940.05;1687561;83;25944;-80
2022/05/28 09:52:34;;;;;;;6.62;1.00;;;;;;;13.60;54.51;99959.02;1678133;84;25379;-80
2022/05/28 09:55:19;;;;;;;6.65;1.22;;;;;;;13.28;55.26;99960.94;1681167;84;26666;-80
2022/05/28 09:57:59;;;;;;;4.37;1.05;;;;;;;13.06;56.65;99971.78;1673747;84;25939;-79
2022/05/28 10:00:26;;;;;;;2.17;0.62;;;;;;;12.93;58.73;99969.14;1664971;86;28394;-80
2022/05/28 10:05:51;;;;;;;2.35;1.12;;;;;;;12.93;60.39;99965.11;1693045;84;25329;-80
2022/05/28 10:08:19;;;;;;;2.30;0.80;;;;;;;12.92;60.00;99980.92;1699071;83;25933;-80
2022/05/28 10:10:58;;;;;;;5.35;1.77;;;;;;;12.93;59.04;99979.39;1693951;83;25769;-79
2022/05/28 10:13:24;;;;;;;3.60;1.60;;;;;;;12.89;59.11;99978.17;1694055;83;27450;-79
2022/05/28 10:16:00;;;;;;;8.98;1.32;;;;;;;12.91;59.57;99969.88;1707144;83;25744;-80
2022/05/28 10:18:41;;;;;;;6.20;0.95;;;;;;;12.86;59.49;99965.67;1707846;83;26125;-81
2022/05/28 10:21:15;;;;;;;8.73;3.00;;;;;;;12.82;59.98;99968.48;1707542;83;26635;-80
2022/05/28 10:23:52;;;;;;;5.05;1.40;;;;;;;12.78;60.24;99982.89;1707037;83;25736;-79
2022/05/28 10:26:29;;;;;;;6.80;1.40;;;;;;;12.68;61.31;99998.63;1706775;83;27476;-79
2022/05/28 10:29:03;;;;;;;7.55;1.10;;;;;;;12.50;62.56;99996.36;1708262;83;25812;-80
2022/05/28 10:31:36;;;;;;;3.12;1.42;;;;;;;12.26;63.21;100004.61;1707316;83;25837;-80
2022/05/28 10:34:05;;;;;;;1.60;0.72;;;;;;;12.22;64.30;99986.77;1674940;84;25750;-80
2022/05/28 10:36:35;;;;;;;2.08;1.32;;;;;;;12.17;64.20;100001.84;1678967;83;25987;-80
2022/05/28 10:39:12;;;;;;;2.60;0.98;;;;;;;12.11;63.79;100003.53;1688198;83;27476;-79
2022/05/28 10:41:41;;;;;;;3.55;0.88;;;;;;;12.13;64.54;100000.11;1695169;83;25857;-81
2022/05/28 10:44:09;;;;;;;1.32;0.70;;;;;;;12.08;63.77;100000.45;1685361;84;25808;-80
2022/05/28 10:47:01;;;;;;;2.83;1.00;;;;;;;12.11;64.87;99987.42;1675889;84;26698;-80
2022/05/28 10:49:53;;;;;;;4.55;1.15;;;;;;;12.21;65.25;100003.90;1702706;84;26511;-80
2022/05/28 10:53:01;;;;;;;3.20;1.00;;;;;;;12.30;65.17;100003.15;1701947;84;28295;-80
2022/05/28 10:55:38;;;;;;;1.60;0.65;;;;;;;12.42;63.87;100000.13;1702781;84;25301;-81
2022/05/28 10:58:30;;;;;;;1.10;0.57;;;;;;;12.61;64.70;100005.09;1702411;83;25809;-80
2022/05/28 11:01:17;;;;;;;1.55;0.53;;;;;;;12.87;63.26;100007.65;1695056;83;25802;-81
2022/05/28 11:03:54;;;;;;;2.83;0.70;;;;;;;12.96;61.50;100009.02;1674433;83;25813;-79
2022/05/28 11:06:35;;;;;;;1.70;0.80;;;;;;;12.87;60.38;100021.89;1690444;83;27420;-80
2022/05/28 11:09:33;;;;;;;1.52;0.55;;;;;;;12.63;60.18;100018.62;1661398;85;26015;-80
2022/05/28 11:12:39;;;;;;;8.10;1.00;;;;;;;12.41;60.63;100010.55;1680183;85;26022;-81
2022/05/28 11:15:47;;;;;;;4.08;0.85;;;;;;;12.25;61.55;100017.75;1645931;84;26715;-80
2022/05/28 11:19:02;;;;;;;2.72;1.37;;;;;;;12.19;62.11;100011.85;1690205;84;26234;-81
2022/05/28 11:21:54;;;;;;;4.60;2.50;;;;;;;12.26;63.12;100011.33;1690141;84;28306;-80
2022/05/28 11:24:41;;;;;;;4.10;0.80;;;;;;;12.49;62.76;100004.92;1690350;84;25972;-81
2022/05/28 11:27:33;;;;;;;1.82;0.60;;;;;;;12.62;62.31;99989.27;1689933;84;26502;-79
2022/05/28 11:30:30;;;;;;;1.75;0.90;;;;;;;12.66;61.56;99981.10;1690295;84;26576;-80
2022/05/28 11:33:08;;;;;;;1.32;1.00;;;;;;;12.64;61.53;99978.61;1690092;84;26522;-81
2022/05/28 11:35:43;;;;;;;2.37;0.95;;;;;;;12.60;62.22;99980.59;1689956;84;28347;-80
2022/05/28 11:38:32;;;;;;;4.53;1.60;;;;;;;12.58;63.28;99974.61;1689852;84;25735;-80
2022/05/28 11:41:22;;;;;;;1.67;1.00;;;;;;;12.49;63.15;99976.72;1684441;84;25986;-80
2022/05/28 11:44:34;;;;;;;5.40;0.80;;;;;;;12.37;64.75;99974.41;1670778;84;26276;-80
2022/05/28 11:47:05;;;;;;;0.88;0.55;;;;;;;12.44;65.47;99981.93;1683384;83;26028;-80
2022/05/28 11:52:35;;;;;;;5.95;1.87;;;;;;;12.61;67.22;99959.42;1669909;85;25322;-80
2022/05/28 11:55:22;;;;;;;5.58;1.22;;;;;;;12.80;67.76;99956.63;1670646;85;25965;-80
2022/05/28 11:58:03;;;;;;;7.97;1.92;;;;;;;13.07;66.50;99959.45;1670320;85;26574;-81
2022/05/28 12:00:34;;;;;;;4.05;1.30;;;;;;;13.40;64.90;99951.64;1664540;85;25733;-80
2022/05/28 12:03:21;;;;;;;2.62;1.10;;;;;;;13.61;63.90;99948.02;1659733;86;27495;-80
2022/05/28 12:05:52;;;;;;;1.25;0.85;;;;;;;13.68;63.91;99943.41;1659980;86;26370;-80